createdAt,value
2018-03-02T00:02:02.127Z,32.85
2018-03-02T00:04:28.792Z,17.52
2018-03-02T00:06:55.471Z,29.10
2018-03-02T00:09:22.131Z,26.40
2018-03-02T00:11:48.776Z,24.73
2018-03-02T00:14:15.428Z,28.30
2018-03-02T00:16:42.106Z,20.50
2018-03-02T00:19:08.776Z,22.92
2018-03-02T00:21:35.512Z,31.77
2018-03-02T00:24:02.203Z,20.15
2018-03-02T00:26:28.908Z,30.08
2018-03-02T00:28:55.556Z,26.25
2018-03-02T00:31:22.216Z,19.85
2018-03-02T00:33:48.885Z,33.67
2018-03-02T00:36:15.519Z,29.87
2018-03-02T00:38:42.181Z,32.30
2018-03-02T00:41:08.824Z,25.40
2018-03-02T00:43:35.497Z,27.62
2018-03-02T00:46:02.148Z,23.75
2018-03-02T00:48:28.798Z,23.48
2018-03-02T00:50:55.458Z,28.38
2018-03-02T00:53:22.104Z,31.85
2018-03-02T00:55:48.789Z,34.83
2018-03-02T00:58:15.423Z,26.55
2018-03-02T01:00:42.097Z,33.42
2018-03-02T01:03:08.748Z,33.85
2018-03-02T01:05:35.413Z,30.20
2018-03-02T01:08:02.052Z,29.70
2018-03-02T01:10:28.708Z,21.77
2018-03-02T01:12:55.356Z,27.42
2018-03-02T01:15:22.019Z,30.20
2018-03-02T01:17:48.665Z,13.77
2018-03-02T01:20:15.332Z,27.60
2018-03-02T01:22:42.887Z,30.55
2018-03-02T01:25:09.560Z,25.90
2018-03-02T01:27:36.211Z,30.60
2018-03-02T01:30:02.879Z,24.58
2018-03-02T01:32:29.520Z,30.73
2018-03-02T01:34:56.211Z,22.08
2018-03-02T01:37:22.864Z,36.03
2018-03-02T01:39:49.536Z,19.35
2018-03-02T01:42:16.179Z,31.25
2018-03-02T01:44:42.839Z,21.42
2018-03-02T01:47:09.495Z,27.98
2018-03-02T01:49:36.148Z,28.48
2018-03-02T01:52:02.797Z,18.92
2018-03-02T01:54:29.447Z,28.62
2018-03-02T01:56:56.104Z,33.20
2018-03-02T01:59:22.739Z,31.48
2018-03-02T02:01:49.402Z,27.65
2018-03-02T02:04:16.059Z,28.62
2018-03-02T02:06:42.724Z,31.15
2018-03-02T02:09:09.394Z,28.52
2018-03-02T02:11:36.068Z,30.58
2018-03-02T02:14:02.703Z,29.70
2018-03-02T02:16:29.385Z,24.42
2018-03-02T02:18:56.051Z,25.00
2018-03-02T02:21:22.715Z,27.48
2018-03-02T02:23:52.242Z,17.98
2018-03-02T02:26:18.919Z,30.55
2018-03-02T02:28:45.597Z,25.80
2018-03-02T02:31:12.271Z,24.92
2018-03-02T02:33:38.920Z,32.88
2018-03-02T02:36:05.582Z,23.67
2018-03-02T02:38:32.222Z,30.95
2018-03-02T02:40:58.908Z,24.77
2018-03-02T02:43:25.552Z,32.53
2018-03-02T02:45:52.205Z,37.38
2018-03-02T02:48:18.868Z,33.30
2018-03-02T02:50:45.543Z,33.75
2018-03-02T02:53:12.189Z,38.47
2018-03-02T02:55:38.855Z,24.55
2018-03-02T02:58:05.528Z,27.52
2018-03-02T03:00:32.190Z,34.80
2018-03-02T03:02:58.850Z,22.60
2018-03-02T03:05:25.505Z,37.65
2018-03-02T03:07:52.177Z,35.55
2018-03-02T03:10:18.839Z,31.70
2018-03-02T03:12:45.496Z,25.55
2018-03-02T03:15:12.131Z,29.60
2018-03-02T03:17:38.791Z,27.67
2018-03-02T03:20:05.452Z,27.67
2018-03-02T03:22:32.115Z,31.27
2018-03-02T03:24:58.782Z,24.95
2018-03-02T03:27:25.442Z,21.75
2018-03-02T03:29:52.092Z,36.85
2018-03-02T03:32:18.763Z,33.83
2018-03-02T03:34:45.416Z,29.05
2018-03-02T03:37:12.074Z,30.58
2018-03-02T03:39:38.716Z,39.85
2018-03-02T03:42:05.379Z,42.62
2018-03-02T03:44:32.036Z,39.92
2018-03-02T03:46:58.687Z,31.30
2018-03-02T03:49:25.351Z,39.25
2018-03-02T03:51:51.992Z,36.88
2018-03-02T03:54:18.640Z,27.77
2018-03-02T03:56:45.286Z,25.12
2018-03-02T03:59:11.932Z,32.20
2018-03-02T04:01:38.687Z,31.45
2018-03-02T04:04:05.340Z,28.92
2018-03-02T04:06:32.011Z,36.40
2018-03-02T04:08:58.654Z,32.63
2018-03-02T04:11:25.325Z,31.52
2018-03-02T04:13:52.108Z,29.92
2018-03-02T04:16:18.796Z,25.98
2018-03-02T04:18:45.436Z,28.38
2018-03-02T04:21:12.080Z,41.30
2018-03-02T04:23:38.753Z,31.12
2018-03-02T04:26:05.704Z,33.38
2018-03-02T04:28:32.370Z,30.90
2018-03-02T04:30:59.447Z,23.33
2018-03-02T04:33:26.119Z,37.13
2018-03-02T04:35:53.371Z,36.47
2018-03-02T04:38:20.041Z,37.83
2018-03-02T04:40:46.677Z,33.08
2018-03-02T04:43:13.325Z,27.02
2018-03-02T04:45:40.024Z,42.42
2018-03-02T04:48:06.631Z,25.37
2018-03-02T04:50:33.935Z,23.98
2018-03-02T04:53:01.235Z,44.78
2018-03-02T04:55:27.891Z,29.08
2018-03-02T04:57:54.531Z,23.75
2018-03-02T05:00:21.199Z,34.63
2018-03-02T05:02:47.868Z,30.37
2018-03-02T05:05:15.733Z,40.55
2018-03-02T05:07:42.424Z,34.05
2018-03-02T05:10:09.080Z,29.17
2018-03-02T05:12:36.333Z,22.73
2018-03-02T05:15:03.028Z,33.45
2018-03-02T05:17:29.674Z,38.72
2018-03-02T05:19:56.321Z,34.58
2018-03-02T05:22:22.981Z,31.48
2018-03-02T05:24:49.617Z,37.90
2018-03-02T05:27:16.285Z,33.10
2018-03-02T05:29:42.921Z,32.72
2018-03-02T05:32:09.572Z,32.55
2018-03-02T05:34:36.235Z,20.52
2018-03-02T05:37:02.892Z,32.60
2018-03-02T05:39:29.795Z,34.67
2018-03-02T05:41:56.448Z,32.97
2018-03-02T05:44:23.153Z,28.70
2018-03-02T05:46:49.866Z,44.15
2018-03-02T05:49:16.577Z,31.35
2018-03-02T05:51:43.326Z,36.47
2018-03-02T05:54:09.992Z,36.20
2018-03-02T05:56:36.660Z,41.53
2018-03-02T05:59:03.307Z,32.55
2018-03-02T06:01:29.969Z,30.02
2018-03-02T06:03:56.611Z,29.58
2018-03-02T06:06:23.299Z,37.97
2018-03-02T06:08:49.947Z,33.25
2018-03-02T06:11:16.635Z,30.33
2018-03-02T06:13:43.284Z,36.83
2018-03-02T06:16:09.969Z,24.45
2018-03-02T06:18:36.635Z,25.23
2018-03-02T06:21:03.323Z,43.83
2018-03-02T06:23:29.985Z,26.77
2018-03-02T06:25:56.649Z,40.60
2018-03-02T06:28:23.307Z,39.30
2018-03-02T06:30:49.965Z,34.50
2018-03-02T06:33:16.602Z,36.78
2018-03-02T06:35:43.298Z,22.52
2018-03-02T06:38:09.940Z,37.15
2018-03-02T06:40:36.668Z,38.58
2018-03-02T06:43:03.397Z,33.20
2018-03-02T06:45:30.053Z,37.05
2018-03-02T06:47:56.692Z,32.60
2018-03-02T06:50:23.343Z,44.10
2018-03-02T06:52:49.985Z,43.00
2018-03-02T06:55:16.664Z,31.90
2018-03-02T06:57:43.362Z,25.08
2018-03-02T07:00:09.998Z,38.08
2018-03-02T07:02:36.632Z,32.20
2018-03-02T07:05:03.267Z,60.25
2018-03-02T07:07:30.129Z,31.02
2018-03-02T07:09:56.776Z,40.78
2018-03-02T07:12:23.430Z,44.85
2018-03-02T07:14:50.092Z,44.75
2018-03-02T07:17:16.806Z,36.40
2018-03-02T07:19:43.422Z,34.45
2018-03-02T07:22:10.113Z,39.35
2018-03-02T07:24:36.754Z,47.65
2018-03-02T07:27:03.421Z,43.22
2018-03-02T07:29:30.080Z,41.80
2018-03-02T07:31:56.740Z,34.28
2018-03-02T07:34:24.471Z,31.17
2018-03-02T07:36:51.153Z,39.03
2018-03-02T07:39:17.815Z,43.55
2018-03-02T07:41:44.492Z,47.17
2018-03-02T07:44:11.143Z,38.00
2018-03-02T07:46:37.806Z,33.15
2018-03-02T07:49:04.446Z,41.75
2018-03-02T07:51:31.122Z,39.92
2018-03-02T07:53:57.770Z,40.75
2018-03-02T07:56:24.464Z,44.20
2018-03-02T07:58:51.118Z,41.33
2018-03-02T08:01:17.771Z,31.30
2018-03-02T08:03:44.404Z,40.22
2018-03-02T08:06:11.040Z,45.88
2018-03-02T08:08:37.695Z,46.78
2018-03-02T08:11:04.332Z,88.80
2018-03-02T08:13:30.968Z,48.22
2018-03-02T08:15:57.616Z,48.80
2018-03-02T08:18:24.270Z,47.05
2018-03-02T08:20:50.912Z,48.85
2018-03-02T08:23:17.582Z,41.67
2018-03-02T08:25:44.270Z,50.15
2018-03-02T08:28:10.929Z,47.75
2018-03-02T08:30:37.604Z,46.67
2018-03-02T08:33:04.277Z,47.17
2018-03-02T08:35:30.921Z,48.28
2018-03-02T08:37:57.585Z,47.47
2018-03-02T08:40:24.236Z,47.13
2018-03-02T08:42:51.015Z,45.25
2018-03-02T08:45:17.651Z,44.28
2018-03-02T08:47:44.310Z,44.55
2018-03-02T08:50:10.958Z,46.88
2018-03-02T08:52:37.607Z,41.13
2018-03-02T08:55:04.246Z,48.03
2018-03-02T08:57:30.902Z,45.10
2018-03-02T08:59:57.545Z,47.80
2018-03-02T09:02:24.196Z,47.53
2018-03-02T09:04:50.859Z,42.78
2018-03-02T09:07:17.511Z,44.28
2018-03-02T09:09:44.156Z,45.15
2018-03-02T09:12:10.816Z,46.70
2018-03-02T09:14:37.460Z,42.20
2018-03-02T09:17:04.108Z,42.28
2018-03-02T09:19:30.780Z,44.28
2018-03-02T09:21:57.420Z,44.97
2018-03-02T09:24:24.080Z,43.25
2018-03-02T09:26:50.722Z,43.60
2018-03-02T09:29:17.388Z,46.20
2018-03-02T09:31:44.046Z,42.00
2018-03-02T09:34:10.701Z,43.17
2018-03-02T09:36:37.351Z,41.55
2018-03-02T09:39:04.017Z,42.00
2018-03-02T09:41:30.655Z,44.60
2018-03-02T09:43:57.327Z,45.78
2018-03-02T09:46:23.970Z,43.55
2018-03-02T09:48:50.603Z,47.67
2018-03-02T09:51:17.264Z,44.00
2018-03-02T09:53:43.948Z,42.42
2018-03-02T09:56:10.610Z,44.20
2018-03-02T09:58:37.297Z,41.65
2018-03-02T10:01:03.948Z,43.75
2018-03-02T10:03:30.601Z,44.50
2018-03-02T10:05:57.239Z,47.50
2018-03-02T10:08:23.889Z,43.83
2018-03-02T10:10:50.560Z,45.00
2018-03-02T10:13:17.208Z,44.08
2018-03-02T10:15:43.876Z,48.20
2018-03-02T10:18:10.520Z,42.72
2018-03-02T10:20:37.172Z,45.30
2018-03-02T10:23:03.812Z,44.10
2018-03-02T10:25:30.476Z,44.13
2018-03-02T10:27:57.144Z,43.80
2018-03-02T10:30:23.825Z,42.67
2018-03-02T10:32:50.499Z,45.75
2018-03-02T10:35:17.167Z,46.42
2018-03-02T10:37:43.835Z,43.13
2018-03-02T10:40:10.481Z,42.35
2018-03-02T10:42:37.179Z,42.50
2018-03-02T10:45:03.832Z,45.05
2018-03-02T10:47:30.500Z,44.10
2018-03-02T10:49:57.139Z,43.20
2018-03-02T10:52:23.825Z,44.47
2018-03-02T10:54:50.480Z,41.83
2018-03-02T10:57:17.129Z,47.20
2018-03-02T10:59:43.809Z,46.33
2018-03-02T11:02:26.292Z,47.28
2018-03-02T11:04:58.749Z,47.15
2018-03-02T11:07:25.409Z,44.58
2018-03-02T11:09:52.047Z,46.67
2018-03-02T11:12:18.725Z,45.70
2018-03-02T11:14:45.360Z,46.17
2018-03-02T11:17:12.028Z,47.65
2018-03-02T11:19:38.934Z,47.33
2018-03-02T11:22:05.608Z,38.45
2018-03-02T11:24:32.256Z,44.00
2018-03-02T11:26:58.930Z,43.80
2018-03-02T11:29:25.572Z,44.22
2018-03-02T11:31:52.261Z,47.13
2018-03-02T11:34:18.904Z,44.58
2018-03-02T11:36:45.539Z,42.58
2018-03-02T11:39:12.181Z,42.08
2018-03-02T11:41:38.822Z,46.25
2018-03-02T11:44:05.469Z,44.85
2018-03-02T11:46:32.109Z,44.22
2018-03-02T11:48:58.762Z,44.15
2018-03-02T11:51:25.403Z,43.50
2018-03-02T11:53:52.123Z,51.37
2018-03-02T11:56:18.778Z,40.42
2018-03-02T11:58:45.444Z,45.42
2018-03-02T12:01:12.158Z,38.80
2018-03-02T12:03:38.815Z,44.63
2018-03-02T12:06:05.456Z,43.67
2018-03-02T12:08:32.146Z,46.37
2018-03-02T12:10:58.792Z,46.10
2018-03-02T12:13:25.461Z,43.60
2018-03-02T12:15:52.116Z,45.85
2018-03-02T12:18:18.809Z,40.50
2018-03-02T12:20:45.466Z,47.30
2018-03-02T12:23:12.147Z,41.85
2018-03-02T12:25:38.788Z,43.92
2018-03-02T12:28:05.461Z,42.33
2018-03-02T12:30:32.108Z,39.85
2018-03-02T12:32:58.800Z,37.90
2018-03-02T12:35:25.462Z,39.10
2018-03-02T12:37:52.108Z,45.35
2018-03-02T12:40:18.751Z,38.85
2018-03-02T12:42:45.411Z,39.60
2018-03-02T12:45:12.057Z,39.75
2018-03-02T12:47:38.712Z,38.38
2018-03-02T12:50:05.359Z,37.38
2018-03-02T12:52:32.014Z,36.28
2018-03-02T12:54:58.659Z,42.70
2018-03-02T12:57:25.312Z,36.22
2018-03-02T12:59:52.956Z,38.83
2018-03-02T13:02:19.640Z,43.92
2018-03-02T13:04:46.302Z,44.30
2018-03-02T13:07:12.969Z,45.65
2018-03-02T13:09:39.628Z,43.10
2018-03-02T13:12:06.285Z,48.10
2018-03-02T13:14:32.950Z,38.60
2018-03-02T13:16:59.636Z,47.38
2018-03-02T13:19:26.295Z,45.33
2018-03-02T13:21:52.952Z,45.75
2018-03-02T13:24:19.675Z,46.42
2018-03-02T13:26:52.255Z,46.70
2018-03-02T13:29:18.957Z,45.05
2018-03-02T13:31:45.628Z,46.58
2018-03-02T13:34:18.182Z,44.20
2018-03-02T13:36:44.848Z,47.28
2018-03-02T13:39:11.498Z,46.53
2018-03-02T13:41:44.160Z,46.22
2018-03-02T13:44:10.825Z,50.95
2018-03-02T13:46:37.463Z,46.17
2018-03-02T13:49:09.968Z,42.80
2018-03-02T13:51:36.685Z,42.95
2018-03-02T13:54:03.338Z,45.72
2018-03-02T13:56:35.780Z,50.65
2018-03-02T13:59:02.434Z,45.45
2018-03-02T14:01:29.120Z,44.15
2018-03-02T14:04:01.617Z,46.67
2018-03-02T14:06:28.321Z,44.97
2018-03-02T14:08:54.963Z,43.78
2018-03-02T14:11:21.624Z,41.30
2018-03-02T14:13:48.291Z,45.33
2018-03-02T14:16:14.968Z,44.95
2018-03-02T14:18:41.628Z,45.17
2018-03-02T14:21:08.309Z,47.50
2018-03-02T14:23:34.979Z,46.10
2018-03-02T14:26:01.643Z,37.50
2018-03-02T14:28:28.296Z,45.15
2018-03-02T14:30:55.044Z,49.72
2018-03-02T14:33:21.688Z,44.90
2018-03-02T14:35:48.354Z,47.88
2018-03-02T14:38:15.008Z,48.20
2018-03-02T14:40:41.676Z,43.58
2018-03-02T14:43:08.343Z,45.83
2018-03-02T14:45:34.992Z,45.75
2018-03-02T14:48:01.682Z,38.92
2018-03-02T14:50:28.337Z,44.70
2018-03-02T14:52:55.480Z,49.22
2018-03-02T14:55:22.165Z,49.55
2018-03-02T14:57:48.835Z,44.42
2018-03-02T15:00:15.497Z,53.25
2018-03-02T15:02:42.183Z,47.78
2018-03-02T15:05:08.861Z,43.53
2018-03-02T15:07:35.592Z,48.87
2018-03-02T15:10:02.248Z,42.67
2018-03-02T15:12:28.936Z,41.35
2018-03-02T15:14:55.577Z,42.10
2018-03-02T15:17:22.239Z,44.65
2018-03-02T15:19:48.925Z,40.50
2018-03-02T15:22:15.586Z,42.38
2018-03-02T15:24:42.227Z,45.20
2018-03-02T15:27:08.888Z,42.13
2018-03-02T15:29:35.535Z,47.65
2018-03-02T15:32:02.181Z,43.97
2018-03-02T15:34:28.844Z,42.50
2018-03-02T15:36:55.498Z,45.00
2018-03-02T15:39:22.158Z,44.83
2018-03-02T15:41:48.821Z,51.37
2018-03-02T15:44:15.581Z,39.78
2018-03-02T15:46:42.230Z,54.17
2018-03-02T15:49:08.914Z,47.22
2018-03-02T15:51:35.559Z,45.85
2018-03-02T15:54:02.221Z,52.22
2018-03-02T15:56:28.873Z,41.60
2018-03-02T15:58:55.541Z,48.25
2018-03-02T16:01:22.185Z,49.00
2018-03-02T16:03:48.872Z,47.60
2018-03-02T16:06:15.555Z,50.42
2018-03-02T16:08:42.230Z,46.88
2018-03-02T16:11:08.927Z,49.70
2018-03-02T16:13:35.609Z,43.45
2018-03-02T16:16:02.262Z,48.87
2018-03-02T16:18:28.921Z,50.67
2018-03-02T16:20:55.578Z,44.70
2018-03-02T16:23:22.213Z,43.20
2018-03-02T16:25:49.205Z,48.63
2018-03-02T16:28:16.168Z,48.00
2018-03-02T16:30:43.188Z,44.28
2018-03-02T16:33:09.895Z,45.45
2018-03-02T16:35:36.906Z,44.15
2018-03-02T16:38:03.632Z,41.35
2018-03-02T16:40:30.316Z,49.33
2018-03-02T16:42:57.322Z,48.20
2018-03-02T16:45:24.378Z,45.12
2018-03-02T16:47:51.173Z,39.28
2018-03-02T16:50:18.148Z,40.50
2018-03-02T16:52:44.808Z,44.08
2018-03-02T16:55:11.590Z,49.55
2018-03-02T16:57:38.259Z,43.05
2018-03-02T17:00:04.925Z,44.90
2018-03-02T17:02:31.582Z,42.03
2018-03-02T17:04:58.231Z,36.17
2018-03-02T17:07:24.938Z,47.22
2018-03-02T17:09:51.574Z,43.67
2018-03-02T17:12:18.243Z,71.70
2018-03-02T17:14:49.738Z,41.97
2018-03-02T17:17:16.388Z,42.17
2018-03-02T17:19:43.432Z,87.80
2018-03-02T17:22:10.098Z,49.10
2018-03-02T17:24:36.855Z,37.67
2018-03-02T17:27:03.501Z,42.28
2018-03-02T17:29:33.230Z,42.97
2018-03-02T17:31:59.905Z,37.38
2018-03-02T17:34:26.554Z,40.95
2018-03-02T17:36:53.250Z,38.95
2018-03-02T17:39:19.896Z,41.85
2018-03-02T17:41:46.549Z,40.20
2018-03-02T17:44:13.188Z,45.25
2018-03-02T17:46:39.828Z,37.50
2018-03-02T17:49:06.502Z,40.22
2018-03-02T17:51:33.144Z,34.53
2018-03-02T17:53:59.780Z,32.45
2018-03-02T17:56:26.420Z,33.10
2018-03-02T17:58:53.056Z,40.97
2018-03-02T18:01:19.839Z,41.60
2018-03-02T18:03:46.497Z,42.60
2018-03-02T18:06:13.160Z,42.33
2018-03-02T18:08:39.824Z,35.75
2018-03-02T18:11:06.536Z,26.50
2018-03-02T18:13:33.151Z,31.75
2018-03-02T18:15:59.850Z,36.38
2018-03-02T18:18:26.497Z,39.97
2018-03-02T18:20:53.152Z,35.40
2018-03-02T18:23:19.887Z,39.85
2018-03-02T18:25:46.528Z,39.10
2018-03-02T18:28:13.168Z,33.38
2018-03-02T18:30:39.980Z,35.85
2018-03-02T18:33:06.714Z,34.92
2018-03-02T18:35:33.324Z,29.80
2018-03-02T18:37:59.975Z,34.88
2018-03-02T18:40:26.621Z,31.98
2018-03-02T18:42:53.265Z,33.03
2018-03-02T18:45:19.931Z,37.17
2018-03-02T18:47:46.582Z,33.25
2018-03-02T18:50:13.226Z,34.20
2018-03-02T18:52:39.865Z,31.45
2018-03-02T18:55:06.565Z,28.30
2018-03-02T18:57:33.236Z,28.62
2018-03-02T18:59:59.881Z,34.08
2018-03-02T19:02:26.524Z,30.77
2018-03-02T19:04:53.163Z,33.08
2018-03-02T19:07:19.847Z,27.27
2018-03-02T19:09:46.521Z,25.98
2018-03-02T19:12:13.275Z,27.37
2018-03-02T19:14:40.084Z,28.05
2018-03-02T19:17:06.873Z,20.27
2018-03-02T19:19:33.567Z,28.98
2018-03-02T19:22:00.209Z,29.77
2018-03-02T19:24:26.860Z,32.67
2018-03-02T19:26:53.519Z,28.12
2018-03-02T19:29:20.179Z,31.17
2018-03-02T19:31:46.819Z,34.60
2018-03-02T19:34:13.480Z,26.48
2018-03-02T19:36:40.152Z,25.92
2018-03-02T19:39:06.811Z,31.83
2018-03-02T19:41:33.459Z,30.33
2018-03-02T19:44:00.136Z,38.35
2018-03-02T19:46:26.799Z,22.60
2018-03-02T19:48:53.540Z,28.23
2018-03-02T19:51:20.184Z,31.42
2018-03-02T19:53:46.864Z,30.05
2018-03-02T19:56:13.512Z,28.83
2018-03-02T19:58:40.219Z,34.53
2018-03-02T20:01:06.892Z,31.37
2018-03-02T20:03:33.576Z,30.30
2018-03-02T20:06:00.238Z,33.58
2018-03-02T20:08:26.876Z,30.10
2018-03-02T20:10:53.541Z,33.95
2018-03-02T20:13:20.298Z,29.87
2018-03-02T20:15:47.185Z,27.60
2018-03-02T20:18:13.887Z,30.75
2018-03-02T20:20:40.546Z,31.33
2018-03-02T20:23:07.243Z,35.47
2018-03-02T20:25:33.880Z,31.67
2018-03-02T20:28:00.589Z,30.95
2018-03-02T20:30:27.244Z,37.47
2018-03-02T20:32:54.017Z,28.52
2018-03-02T20:35:20.680Z,34.90
2018-03-02T20:37:47.348Z,28.95
2018-03-02T20:40:13.998Z,31.15
2018-03-02T20:42:40.639Z,32.75
2018-03-02T20:45:07.291Z,29.58
2018-03-02T20:47:33.967Z,36.00
2018-03-02T20:50:00.617Z,36.78
2018-03-02T20:52:27.263Z,33.67
2018-03-02T20:54:53.928Z,32.13
2018-03-02T20:57:20.772Z,31.77
2018-03-02T20:59:47.503Z,28.42
2018-03-02T21:02:14.151Z,29.20
2018-03-02T21:04:40.836Z,26.90
2018-03-02T21:07:07.504Z,30.25
2018-03-02T21:09:34.190Z,63.97
2018-03-02T21:12:00.884Z,42.60
2018-03-02T21:14:27.607Z,34.28
2018-03-02T21:16:54.337Z,52.92
2018-03-02T21:19:21.004Z,32.70
2018-03-02T21:21:48.404Z,35.65
2018-03-02T21:24:15.053Z,36.63
2018-03-02T21:26:41.854Z,31.35
2018-03-02T21:29:08.565Z,34.78
2018-03-02T21:31:35.485Z,35.53
2018-03-02T21:34:02.150Z,34.72
2018-03-02T21:36:29.120Z,36.65
2018-03-02T21:38:56.025Z,32.42
2018-03-02T21:41:22.749Z,36.40
2018-03-02T21:43:49.569Z,40.78
2018-03-02T21:46:16.277Z,33.08
2018-03-02T21:48:43.181Z,46.17
2018-03-02T21:51:09.860Z,28.70
2018-03-02T21:53:36.509Z,34.30
2018-03-02T21:56:03.167Z,28.62
2018-03-02T21:58:29.879Z,33.70
2018-03-02T22:00:56.522Z,35.88
2018-03-02T22:03:23.174Z,32.35
2018-03-02T22:05:49.823Z,26.15
2018-03-02T22:08:16.485Z,22.90
2018-03-02T22:10:43.159Z,31.27
2018-03-02T22:13:09.820Z,28.40
2018-03-02T22:15:41.344Z,29.27
2018-03-02T22:18:07.993Z,43.20
2018-03-02T22:20:34.636Z,31.73
2018-03-02T22:23:01.308Z,23.70
2018-03-02T22:25:27.964Z,32.25
2018-03-02T22:27:54.632Z,38.30
2018-03-02T22:30:21.304Z,29.60
2018-03-02T22:32:47.979Z,33.35
2018-03-02T22:35:14.617Z,29.80
2018-03-02T22:37:41.277Z,29.08
2018-03-02T22:40:07.983Z,31.77
2018-03-02T22:42:34.626Z,24.50
2018-03-02T22:45:01.272Z,29.08
2018-03-02T22:47:27.924Z,27.50
2018-03-02T22:49:54.579Z,27.90
2018-03-02T22:52:21.256Z,31.92
2018-03-02T22:54:47.909Z,30.20
2018-03-02T22:57:14.553Z,32.28
2018-03-02T22:59:41.224Z,28.90
2018-03-02T23:02:07.876Z,26.20
2018-03-02T23:04:34.525Z,32.97
2018-03-02T23:07:01.174Z,32.50
2018-03-02T23:09:27.817Z,30.90
2018-03-02T23:11:54.472Z,36.72
2018-03-02T23:14:21.138Z,37.97
2018-03-02T23:16:47.787Z,24.52
2018-03-02T23:19:14.453Z,29.70
2018-03-02T23:21:41.108Z,32.00
2018-03-02T23:24:07.755Z,23.83
2018-03-02T23:26:34.437Z,21.35
2018-03-02T23:29:01.129Z,32.20
2018-03-02T23:31:27.771Z,29.45
2018-03-02T23:33:54.411Z,23.48
2018-03-02T23:36:21.063Z,25.60
2018-03-02T23:38:47.716Z,31.30
2018-03-02T23:41:14.378Z,33.63
2018-03-02T23:43:41.028Z,33.10
2018-03-02T23:46:07.689Z,35.55
2018-03-02T23:48:34.329Z,35.80
2018-03-02T23:51:00.977Z,27.20
2018-03-02T23:53:27.629Z,29.83
2018-03-02T23:55:54.284Z,39.38
2018-03-02T23:58:20.928Z,25.88
